Aguada, Puerto Rico
Current Conditions -  °F | °C
As of 6:50 PM on Wednesday 26 Nov 2014 (Local Time) from TJBQ Reporting Station
Scattered Clouds Scattered Clouds  
Wind Chill: 79°   Ceiling: Unl
Heat Index: 82°   Visibility: 10mi
Dew Point: 72°   Wind: 13mph
Humidity: 78%   Direction: 80°E
Pressure: 30"   Gusts: NA
Location:  18.38°N, 67.19°W
Report Text: TJBQ 262250Z 08011KT 10SM SCT025 SCT030 26/22 A3000 RMK RWY08 ATIS R
Loading
Personal Weather Stations






























Interactive Weather Map New forecast layout! Learn more

10-Day Weather Forecast

Advertisements
Track Severe Weather on mobile